Time;durP1;ratioP1;P1;durP2;ratioP2;P2;SDS_P1;SDS_P2;PMS_P1;PMS_P2;Temp;Humidity;BMP_temperature;BMP_pressure;BME280_temperature;BME280_humidity;BME280_pressure;Samples;Min_cycle;Max_cycle;Signal;HPM_P1;HPM_P2
2023/07/28 00:00:20;;;;;;;;;;;;;;;;;;;;;
2023/07/28 00:04:09;;;;;;;;;;;;;;;;;;;;;
2023/07/28 00:07:36;;;;;;;37.90;14.70;;;17.70;99.90;;;;;;6064211;23;20116;-90
2023/07/28 00:10:43;;;;;;;34.90;14.30;;;17.20;99.90;;;;;;6079283;23;20091;-92
2023/07/28 00:20:07;;;;;;;;;;;;;;;;;;;;;
2023/07/28 00:26:16;;;;;;;38.20;14.95;;;17.70;99.90;;;;;;6067917;23;20028;-90
2023/07/28 00:28:57;;;;;;;33.53;13.90;;;17.60;99.90;;;;;;6129753;23;20030;-90
2023/07/28 00:31:53;;;;;;;36.75;15.38;;;17.60;99.90;;;;;;6129178;23;20018;-90
2023/07/28 00:34:28;;;;;;;35.55;15.20;;;17.60;99.90;;;;;;6155980;23;20013;-91
2023/07/28 00:37:29;;;;;;;35.90;15.27;;;17.60;99.90;;;;;;6129358;23;20026;-91
2023/07/28 00:40:54;;;;;;;36.10;15.50;;;17.70;99.90;;;;;;6127874;23;20022;-90
2023/07/28 00:51:09;;;;;;;41.72;16.17;;;17.20;99.90;;;;;;6155019;23;20024;-89
2023/07/28 00:59:05;;;;;;;37.78;16.15;;;17.60;99.90;;;;;;6138393;23;20025;-90
2023/07/28 01:01:53;;;;;;;39.40;16.52;;;17.50;99.90;;;;;;6128182;23;20438;-89
2023/07/28 01:04:38;;;;;;;;;;;;;;;;;;;;;
2023/07/28 01:14:07;;;;;;;43.40;16.80;;;17.60;99.90;;;;;;6153859;23;20064;-90
2023/07/28 01:19:18;;;;;;;44.20;16.50;;;17.60;99.90;;;;;;6130860;23;20026;-90
2023/07/28 01:26:04;;;;;;;44.00;17.25;;;17.50;99.90;;;;;;6100886;23;20074;-89
2023/07/28 01:31:07;;;;;;;36.72;15.55;;;17.60;99.90;;;;;;6148089;23;20022;-91
2023/07/28 01:42:00;;;;;;;45.42;17.20;;;17.50;99.90;;;;;;6103376;23;20048;-90
2023/07/28 01:44:42;;;;;;;41.83;17.25;;;17.60;99.90;;;;;;5979452;24;20028;-89
2023/07/28 01:47:54;;;;;;;42.22;16.80;;;17.60;99.90;;;;;;5985202;23;20445;-90
2023/07/28 01:51:06;;;;;;;48.03;18.83;;;17.60;99.90;;;;;;6150797;23;20025;-89
2023/07/28 01:53:40;;;;;;;44.40;17.40;;;17.90;99.90;;;;;;6080029;23;20060;-90
2023/07/28 01:56:19;;;;;;;43.55;17.02;;;17.60;99.90;;;;;;6155422;23;20430;-91
2023/07/28 02:01:39;;;;;;;41.70;17.45;;;17.60;99.90;;;;;;6151977;23;20029;-91
2023/07/28 02:18:15;;;;;;;41.15;16.75;;;17.60;99.90;;;;;;6151942;23;20025;-91
2023/07/28 02:21:32;;;;;;;45.90;18.75;;;17.60;99.90;;;;;;6128858;23;20021;-92
2023/07/28 02:24:34;;;;;;;45.47;17.85;;;17.60;99.90;;;;;;6047870;23;20460;-90
2023/07/28 02:27:09;;;;;;;46.38;18.05;;;17.20;99.90;;;;;;6130013;23;20014;-90
2023/07/28 02:29:55;;;;;;;45.00;17.90;;;18.00;99.90;;;;;;6128951;23;20025;-92
2023/07/28 02:36:31;;;;;;;41.88;16.98;;;17.60;99.90;;;;;;6136315;23;20402;-90
2023/07/28 02:39:28;;;;;;;42.28;17.95;;;17.20;99.90;;;;;;6100391;23;20105;-91
2023/07/28 02:41:59;;;;;;;41.67;17.88;;;17.60;99.90;;;;;;6077182;23;20028;-89
2023/07/28 02:45:25;;;;;;;44.92;17.80;;;17.50;99.90;;;;;;6112412;23;20446;-90
2023/07/28 02:48:03;;;;;;;43.35;17.10;;;17.60;99.90;;;;;;6015146;23;20024;-89
2023/07/28 02:50:45;;;;;;;42.45;16.73;;;17.60;99.90;;;;;;6014427;23;20055;-90
2023/07/28 02:53:23;;;;;;;46.80;19.08;;;17.60;99.90;;;;;;6137038;23;20021;-90
2023/07/28 02:59:24;;;;;;;44.22;17.42;;;18.10;99.90;;;;;;6027937;23;20060;-90
2023/07/28 03:02:23;;;;;;;40.45;16.75;;;17.60;99.90;;;;;;6155471;23;20037;-91
2023/07/28 03:04:49;;;;;;;44.95;18.10;;;17.60;99.90;;;;;;6129504;23;20013;-90
2023/07/28 03:07:41;;;;;;;39.00;16.73;;;17.60;99.90;;;;;;6090524;23;20342;-90
2023/07/28 03:13:07;;;;;;;38.83;16.90;;;17.60;99.90;;;;;;6155550;23;20049;-90
2023/07/28 03:18:23;;;;;;;41.22;16.45;;;17.60;99.90;;;;;;6151877;23;20026;-90
2023/07/28 03:20:58;;;;;;;39.75;15.98;;;17.70;99.90;;;;;;6128678;23;20021;-89
2023/07/28 03:26:26;;;;;;;34.58;15.77;;;17.60;99.90;;;;;;6129887;23;20018;-89
2023/07/28 03:29:31;;;;;;;42.13;17.30;;;17.60;99.90;;;;;;6155286;23;20121;-90
2023/07/28 03:32:00;;;;;;;39.33;15.88;;;17.70;99.90;;;;;;6130374;23;20334;-90
2023/07/28 03:34:32;;;;;;;35.00;16.38;;;17.60;99.90;;;;;;6130464;23;20194;-90
2023/07/28 03:38:03;;;;;;;39.97;17.00;;;17.60;99.90;;;;;;6128786;23;20014;-89
2023/07/28 03:44:05;;;;;;;39.67;16.58;;;17.60;99.90;;;;;;6158179;23;20444;-89
2023/07/28 03:46:33;;;;;;;36.30;16.70;;;17.60;99.90;;;;;;5985297;23;20020;-90
2023/07/28 03:49:40;;;;;;;39.78;16.50;;;17.60;99.90;;;;;;6007094;23;20030;-91
2023/07/28 03:52:06;;;;;;;39.72;16.52;;;17.60;99.90;;;;;;6008337;23;20132;-89
2023/07/28 03:54:32;;;;;;;39.50;16.52;;;17.70;99.90;;;;;;5985469;23;20055;-90
2023/07/28 03:56:57;;;;;;;39.45;16.60;;;17.60;99.90;;;;;;5983913;23;20031;-89
2023/07/28 03:59:23;;;;;;;40.67;18.00;;;17.60;99.90;;;;;;6008761;23;20086;-89
2023/07/28 04:01:55;;;;;;;39.88;16.77;;;17.70;99.90;;;;;;6061957;23;20442;-89
2023/07/28 04:04:44;;;;;;;39.60;17.05;;;17.70;99.90;;;;;;6152462;23;20021;-90
2023/07/28 04:07:10;;;;;;;39.60;16.33;;;17.70;99.90;;;;;;6157030;23;20021;-89
2023/07/28 04:10:23;;;;;;;45.38;16.70;;;17.60;99.90;;;;;;6129990;23;20010;-89
2023/07/28 04:13:07;;;;;;;42.70;16.05;;;17.70;99.90;;;;;;6129484;23;20032;-90
2023/07/28 04:18:23;;;;;;;38.25;16.95;;;17.70;99.90;;;;;;6148987;23;20034;-89
2023/07/28 04:24:41;;;;;;;41.78;16.80;;;17.30;99.90;;;;;;6153574;23;20032;-91
2023/07/28 04:29:53;;;;;;;40.00;16.98;;;17.70;99.90;;;;;;6169002;23;20025;-91
2023/07/28 04:32:39;;;;;;;37.90;17.02;;;17.70;99.90;;;;;;6139709;23;20068;-89
2023/07/28 04:35:06;;;;;;;45.97;16.63;;;17.70;99.90;;;;;;6129794;23;20077;-90
2023/07/28 04:38:06;;;;;;;36.72;16.27;;;17.70;99.90;;;;;;6112499;23;21517;-89
2023/07/28 04:40:32;;;;;;;36.08;16.52;;;17.70;99.90;;;;;;6038219;23;20023;-90
2023/07/28 04:43:23;;;;;;;40.63;16.02;;;17.70;99.90;;;;;;6039943;23;20015;-89
2023/07/28 04:46:29;;;;;;;;;;;;;;;;;;;;;
2023/07/28 04:49:42;;;;;;;;;;;;;;;;;;;;;
2023/07/28 04:53:02;;;;;;;40.78;16.48;;;18.30;99.90;;;;;;6095766;23;20484;-89
2023/07/28 04:56:08;;;;;;;34.77;15.97;;;17.80;99.90;;;;;;6007822;23;20131;-90
2023/07/28 04:58:34;;;;;;;42.63;17.05;;;17.70;99.90;;;;;;6007851;23;20028;-89
2023/07/28 05:04:02;;;;;;;38.63;17.00;;;17.40;99.90;;;;;;6148542;23;20861;-90
2023/07/28 05:09:14;;;;;;;37.60;16.20;;;17.80;99.90;;;;;;6153778;23;20029;-89
2023/07/28 05:11:53;;;;;;;38.30;15.85;;;17.40;99.90;;;;;;6152825;23;20402;-90
2023/07/28 05:14:28;;;;;;;38.63;15.90;;;17.70;99.90;;;;;;6128412;23;20056;-89
2023/07/28 05:17:08;;;;;;;37.00;16.58;;;17.70;99.90;;;;;;6154765;23;20448;-89
2023/07/28 05:19:36;;;;;;;37.60;16.15;;;17.80;99.90;;;;;;6128663;23;20022;-89
2023/07/28 05:22:06;;;;;;;42.35;17.25;;;17.80;99.90;;;;;;6128237;23;20064;-89
2023/07/28 05:27:24;;;;;;;41.95;16.60;;;17.80;99.90;;;;;;6155420;23;20072;-89
2023/07/28 05:29:50;;;;;;;36.17;16.30;;;17.80;99.90;;;;;;6140019;23;20041;-89
2023/07/28 05:32:42;;;;;;;31.33;16.23;;;17.80;99.90;;;;;;6100366;23;20022;-90
2023/07/28 05:39:29;;;;;;;36.30;16.75;;;17.80;99.90;;;;;;6138573;23;20053;-90
2023/07/28 05:45:23;;;;;;;38.88;17.20;;;17.90;99.90;;;;;;6061669;23;20121;-90
2023/07/28 05:50:54;;;;;;;;;;;;;;;;;;;;;
2023/07/28 05:53:44;;;;;;;30.80;15.70;;;17.80;99.90;;;;;;6035464;23;20018;-88
2023/07/28 05:56:42;;;;;;;44.53;16.45;;;17.70;99.90;;;;;;6099113;23;20014;-90
2023/07/28 06:04:16;;;;;;;35.80;16.67;;;17.90;99.90;;;;;;6097374;23;20026;-89
2023/07/28 06:07:00;;;;;;;37.40;16.42;;;17.60;99.90;;;;;;6072434;23;20337;-90
2023/07/28 06:09:26;;;;;;;;;;;17.90;99.90;;;;;;6098612;23;20089;-89
2023/07/28 06:12:03;;;;;;;35.33;15.73;;;17.90;99.90;;;;;;6071027;23;20317;-89
2023/07/28 06:19:49;;;;;;;36.45;17.80;;;18.00;99.90;;;;;;6147780;23;20025;-89
2023/07/28 06:22:57;;;;;;;36.10;17.13;;;18.10;99.90;;;;;;6131976;23;20028;-89
2023/07/28 06:25:55;;;;;;;30.70;16.27;;;18.00;99.90;;;;;;6014396;23;20028;-90
2023/07/28 06:29:03;;;;;;;35.65;16.83;;;18.10;99.90;;;;;;6155877;23;20014;-90
2023/07/28 06:31:48;;;;;;;;;;;;;;;;;;;;;
2023/07/28 06:38:35;;;;;;;36.00;15.77;;;18.20;99.90;;;;;;6135855;23;20061;-90
2023/07/28 06:41:11;;;;;;;;;;;;;;;;;;;;;
2023/07/28 06:44:11;;;;;;;30.92;16.30;;;18.50;99.90;;;;;;6155959;23;20024;-90
2023/07/28 06:46:55;;;;;;;35.13;15.90;;;18.50;99.90;;;;;;6129415;23;20056;-85
2023/07/28 06:49:24;;;;;;;28.13;15.25;;;18.60;99.90;;;;;;6130265;23;20021;-86
2023/07/28 06:52:34;;;;;;;28.05;15.18;;;18.90;99.90;;;;;;6155448;23;20005;-86
2023/07/28 06:55:22;;;;;;;;;;;;;;;;;;;;;
2023/07/28 06:58:09;;;;;;;28.42;14.38;;;18.90;99.90;;;;;;5990143;23;20463;-86
2023/07/28 07:01:22;;;;;;;26.77;14.65;;;19.00;99.90;;;;;;6007885;23;20572;-86
2023/07/28 07:04:05;;;;;;;29.23;13.98;;;19.00;99.90;;;;;;5985568;23;20107;-87
2023/07/28 07:07:14;;;;;;;25.25;13.90;;;19.00;99.90;;;;;;5986692;23;20024;-90
2023/07/28 07:09:42;;;;;;;25.13;13.82;;;19.00;99.90;;;;;;6001457;23;20031;-86
2023/07/28 07:12:11;;;;;;;29.90;14.38;;;19.10;99.90;;;;;;6009678;23;20016;-85
2023/07/28 07:14:36;;;;;;;25.85;13.85;;;19.10;99.90;;;;;;6008314;23;20020;-85
2023/07/28 07:19:39;;;;;;;29.30;14.07;;;19.10;99.90;;;;;;6155755;23;20022;-86
2023/07/28 07:22:11;;;;;;;25.10;13.93;;;19.10;99.90;;;;;;6130897;23;20016;-86
2023/07/28 07:24:37;;;;;;;26.00;13.45;;;18.90;99.90;;;;;;6106046;23;20406;-85
2023/07/28 07:27:04;;;;;;;25.52;14.32;;;19.00;99.90;;;;;;6128569;23;20442;-85
2023/07/28 07:29:33;;;;;;;24.00;13.45;;;19.00;99.90;;;;;;6129869;23;20014;-85
2023/07/28 07:32:16;;;;;;;26.42;13.68;;;19.00;99.90;;;;;;6129463;23;20022;-86
2023/07/28 07:35:02;;;;;;;26.70;13.82;;;19.20;99.90;;;;;;6152220;23;20080;-85
2023/07/28 07:41:12;;;;;;;22.05;12.98;;;19.20;99.90;;;;;;6154145;23;20017;-86
2023/07/28 07:47:41;;;;;;;22.52;12.05;;;18.90;99.90;;;;;;6109920;23;20021;-84
2023/07/28 07:50:41;;;;;;;19.35;11.75;;;19.60;99.90;;;;;;6128589;23;20022;-85
2023/07/28 07:53:12;;;;;;;17.35;10.73;;;19.80;99.90;;;;;;6129513;23;20045;-84
2023/07/28 07:55:59;;;;;;;19.70;11.25;;;20.00;99.90;;;;;;6128472;23;20319;-85
2023/07/28 07:58:39;;;;;;;21.40;11.18;;;19.70;99.90;;;;;;6129261;23;20021;-84
2023/07/28 08:01:20;;;;;;;18.05;11.57;;;19.80;99.90;;;;;;6155789;23;20059;-84
2023/07/28 08:03:58;;;;;;;20.98;11.55;;;19.60;99.90;;;;;;6154354;23;20021;-84
2023/07/28 08:06:30;;;;;;;21.25;11.70;;;19.60;99.90;;;;;;6128833;23;20017;-85
2023/07/28 08:13:20;;;;;;;20.55;11.75;;;19.80;99.90;;;;;;6155184;23;20102;-84
2023/07/28 08:16:07;;;;;;;21.10;11.50;;;19.80;99.90;;;;;;6154652;23;20022;-85
2023/07/28 08:18:39;;;;;;;21.30;11.20;;;19.90;99.90;;;;;;6128718;23;20045;-84
2023/07/28 08:21:11;;;;;;;18.75;11.55;;;20.00;99.90;;;;;;6128532;23;20045;-84
2023/07/28 08:23:39;;;;;;;17.88;10.73;;;20.00;99.90;;;;;;6127875;23;20024;-86
2023/07/28 08:26:07;;;;;;;18.55;10.10;;;20.20;99.90;;;;;;6129046;23;20346;-85
2023/07/28 08:28:33;;;;;;;18.90;9.88;;;20.30;99.90;;;;;;6128812;23;20073;-85
2023/07/28 08:31:04;;;;;;;18.73;10.20;;;20.30;99.90;;;;;;6127076;23;20025;-85
2023/07/28 08:34:17;;;;;;;18.48;9.85;;;20.50;99.90;;;;;;6154928;23;20029;-85
2023/07/28 08:36:43;;;;;;;19.35;10.15;;;20.90;99.90;;;;;;6127502;23;20104;-84
2023/07/28 08:39:45;;;;;;;15.45;9.00;;;20.50;99.90;;;;;;6150657;23;20071;-84
2023/07/28 08:49:13;;;;;;;15.02;8.25;;;20.40;99.90;;;;;;6128383;23;20021;-85
2023/07/28 08:52:48;;;;;;;16.50;8.73;;;20.70;99.90;;;;;;6128096;23;20026;-86
2023/07/28 08:55:27;;;;;;;14.07;8.70;;;20.80;99.90;;;;;;5956909;24;20020;-85
2023/07/28 09:01:23;;;;;;;17.63;8.23;;;20.90;99.90;;;;;;6109443;23;20032;-85
2023/07/28 09:03:54;;;;;;;16.70;8.20;;;21.30;99.90;;;;;;6154489;23;20509;-84
2023/07/28 09:06:29;;;;;;;14.18;7.82;;;21.30;99.90;;;;;;6128343;23;20342;-85
2023/07/28 09:09:07;;;;;;;16.50;8.13;;;21.30;99.90;;;;;;6128480;23;20021;-84
2023/07/28 09:11:33;;;;;;;14.02;7.03;;;21.30;99.90;;;;;;6128830;23;20438;-85
2023/07/28 09:14:16;;;;;;;14.15;7.30;;;21.10;99.90;;;;;;6128249;23;20382;-84
2023/07/28 09:17:28;;;;;;;14.88;7.82;;;21.10;99.90;;;;;;6128533;23;20013;-84
2023/07/28 09:19:59;;;;;;;15.18;7.00;;;21.20;99.90;;;;;;6153281;23;20471;-84
2023/07/28 09:22:41;;;;;;;16.02;7.72;;;21.40;99.90;;;;;;6127233;23;20023;-87
2023/07/28 09:25:30;;;;;;;14.80;7.40;;;21.50;99.90;;;;;;6128584;23;20024;-86
2023/07/28 09:27:59;;;;;;;15.88;7.95;;;22.10;99.90;;;;;;6127620;23;20101;-85
2023/07/28 09:31:04;;;;;;;15.48;7.97;;;21.90;99.90;;;;;;6128087;23;20476;-86
2023/07/28 09:33:34;;;;;;;16.02;7.72;;;21.80;99.90;;;;;;6128394;23;20010;-85
2023/07/28 09:36:25;;;;;;;16.05;8.25;;;21.60;99.90;;;;;;6156662;23;20021;-85
2023/07/28 09:38:52;;;;;;;15.07;7.95;;;21.60;99.90;;;;;;6155713;23;20446;-84
2023/07/28 09:41:20;;;;;;;13.38;7.50;;;21.70;99.90;;;;;;6156552;23;20018;-85
2023/07/28 09:43:52;;;;;;;14.98;7.35;;;21.80;99.90;;;;;;6122892;23;20028;-85
2023/07/28 09:46:20;;;;;;;13.03;6.97;;;21.80;99.90;;;;;;6130866;23;20028;-86
2023/07/28 09:48:48;;;;;;;12.68;6.55;;;21.90;99.90;;;;;;6154909;23;20013;-86
2023/07/28 09:51:31;;;;;;;16.17;8.73;;;22.00;99.90;;;;;;6130121;23;20022;-86
2023/07/28 09:55:02;;;;;;;18.52;8.43;;;21.80;99.90;;;;;;6130133;23;20022;-85
2023/07/28 09:57:51;;;;;;;20.52;8.57;;;21.80;99.90;;;;;;6137428;23;20442;-85
2023/07/28 10:00:29;;;;;;;15.27;8.40;;;21.70;99.90;;;;;;6130655;23;20021;-85
2023/07/28 10:03:40;;;;;;;15.75;7.60;;;21.90;99.90;;;;;;6128724;23;20052;-85
2023/07/28 10:06:06;;;;;;;16.52;7.97;;;21.80;99.90;;;;;;6129901;23;20025;-85
2023/07/28 10:09:03;;;;;;;13.82;7.80;;;22.10;99.90;;;;;;6155286;23;20024;-85
2023/07/28 10:12:09;;;;;;;16.20;8.55;;;22.10;99.90;;;;;;6129999;23;20315;-85
2023/07/28 10:14:43;;;;;;;14.73;8.45;;;21.80;99.90;;;;;;6128315;23;20049;-84
2023/07/28 10:21:59;;;;;;;18.75;8.43;;;21.50;99.90;;;;;;6097172;23;20024;-83
2023/07/28 10:25:01;;;;;;;14.63;8.18;;;21.50;99.90;;;;;;6108898;23;20346;-85
2023/07/28 10:27:46;;;;;;;15.43;8.48;;;22.10;99.90;;;;;;6156606;23;20017;-85
2023/07/28 10:30:20;;;;;;;15.82;8.10;;;22.50;99.90;;;;;;6129740;23;20029;-85
2023/07/28 10:32:59;;;;;;;;;;;22.60;99.90;;;;;;6130775;23;20154;-85
2023/07/28 10:35:33;;;;;;;13.68;7.82;;;22.60;99.90;;;;;;6159980;23;19927;-86
2023/07/28 10:41:46;;;;;;;;;;;;;;;;;;;;;
2023/07/28 10:44:48;;;;;;;13.88;8.55;;;22.20;99.90;;;;;;6117603;23;20017;-85
2023/07/28 10:47:24;;;;;;;;;;;;;;;;;;;;;
2023/07/28 10:50:04;;;;;;;13.77;7.90;;;22.00;99.90;;;;;;6153134;23;20489;-84
2023/07/28 10:52:29;;;;;;;14.77;8.70;;;21.80;99.90;;;;;;6129499;23;20013;-84
2023/07/28 10:55:04;;;;;;;14.15;8.07;;;21.90;99.90;;;;;;6156398;23;20500;-84
2023/07/28 10:57:44;;;;;;;12.52;7.25;;;21.80;99.90;;;;;;6130003;23;20018;-84
2023/07/28 11:00:25;;;;;;;14.93;7.40;;;22.20;99.90;;;;;;6129428;23;20103;-82
2023/07/28 11:02:59;;;;;;;14.27;7.30;;;22.70;99.90;;;;;;6155846;23;20021;-84
2023/07/28 11:05:27;;;;;;;12.95;7.47;;;23.20;99.90;;;;;;6128220;23;20096;-83
2023/07/28 11:08:31;;;;;;;13.45;7.03;;;23.40;99.90;;;;;;6128784;23;20021;-83
2023/07/28 11:10:59;;;;;;;;;;;23.20;99.90;;;;;;6127874;23;20022;-84
2023/07/28 11:13:31;;;;;;;10.90;6.30;;;22.70;99.90;;;;;;6154890;23;19951;-85
2023/07/28 11:16:00;;;;;;;11.13;6.50;;;22.50;99.90;;;;;;6130587;23;20088;-86
2023/07/28 11:18:29;;;;;;;11.88;5.93;;;22.30;99.90;;;;;;6129937;23;20017;-85
2023/07/28 11:21:03;;;;;;;9.80;5.30;;;22.30;99.90;;;;;;6126118;23;20444;-86
2023/07/28 11:24:08;;;;;;;14.55;6.22;;;22.50;99.90;;;;;;6128667;23;20098;-87
2023/07/28 11:27:02;;;;;;;13.10;6.70;;;22.70;99.90;;;;;;6111361;23;20087;-85
2023/07/28 11:29:43;;;;;;;15.65;7.55;;;23.00;99.90;;;;;;5997420;23;20019;-87
2023/07/28 11:32:31;;;;;;;10.20;5.32;;;22.90;99.90;;;;;;6129528;23;20018;-84
2023/07/28 11:35:40;;;;;;;9.50;4.90;;;22.20;99.90;;;;;;6126047;23;20458;-88
2023/07/28 11:40:41;;;;;;;9.75;5.30;;;21.70;99.90;;;;;;6150408;23;20026;-90
2023/07/28 11:44:00;;;;;;;12.25;5.50;;;21.40;99.90;;;;;;6129368;23;20049;-88
2023/07/28 11:50:47;;;;;;;11.40;5.90;;;21.60;99.90;;;;;;6039156;23;20100;-87
2023/07/28 11:53:44;;;;;;;;;;;;;;;;;;;;;
2023/07/28 11:56:47;;;;;;;13.55;8.27;;;20.90;99.90;;;;;;5978240;24;20024;-86
2023/07/28 12:06:16;;;;;;;14.07;8.10;;;20.60;99.90;;;;;;6036812;23;20073;-84
2023/07/28 12:09:31;;;;;;;14.77;7.93;;;20.80;99.90;;;;;;6012033;23;20015;-85
2023/07/28 12:12:04;;;;;;;12.75;7.97;;;21.00;99.90;;;;;;6013462;23;20115;-84
2023/07/28 12:14:57;;;;;;;;;;;21.10;99.90;;;;;;6012129;23;20019;-84
2023/07/28 12:17:33;;;;;;;14.43;9.23;;;21.20;99.90;;;;;;6011782;23;19928;-85
2023/07/28 12:20:11;;;;;;;14.55;9.23;;;21.70;99.90;;;;;;6012968;23;20023;-87
2023/07/28 12:27:01;;;;;;;14.68;8.98;;;22.60;99.90;;;;;;6036823;23;20022;-85
2023/07/28 12:29:39;;;;;;;13.32;9.10;;;23.00;99.90;;;;;;6012362;23;20459;-86
2023/07/28 12:35:51;;;;;;;13.27;8.20;;;22.90;99.90;;;;;;6003804;23;20390;-87
2023/07/28 12:38:23;;;;;;;12.32;7.78;;;23.20;99.90;;;;;;6040419;23;20510;-82
2023/07/28 12:41:03;;;;;;;18.50;8.15;;;23.30;99.90;;;;;;6041260;23;20045;-82
2023/07/28 12:43:37;;;;;;;14.90;7.05;;;23.30;99.90;;;;;;6102256;23;20092;-83
2023/07/28 12:46:14;;;;;;;12.38;6.93;;;23.40;99.90;;;;;;6155139;23;20366;-84
2023/07/28 12:48:49;;;;;;;11.95;6.53;;;23.70;99.90;;;;;;6155061;23;20512;-82
2023/07/28 12:51:24;;;;;;;11.73;6.90;;;23.70;99.90;;;;;;6154611;23;20040;-83
2023/07/28 12:54:05;;;;;;;10.98;6.28;;;23.30;99.90;;;;;;6128566;23;20116;-82
2023/07/28 12:56:31;;;;;;;10.93;5.75;;;23.50;99.90;;;;;;6155503;23;20024;-83
2023/07/28 13:05:36;;;;;;;21.10;7.05;;;24.00;99.90;;;;;;6121259;23;20049;-85
2023/07/28 13:08:02;;;;;;;11.20;5.80;;;23.40;99.90;;;;;;6125286;23;20450;-85
2023/07/28 13:10:58;;;;;;;11.30;5.85;;;24.30;99.90;;;;;;6098529;23;20068;-85
2023/07/28 13:13:24;;;;;;;10.38;5.65;;;24.30;99.90;;;;;;6099402;23;20463;-85
2023/07/28 13:15:59;;;;;;;12.65;6.18;;;24.70;99.90;;;;;;6125498;23;20387;-85
2023/07/28 13:18:40;;;;;;;;;;;;;;;;;;;;;
2023/07/28 13:21:31;;;;;;;10.25;5.53;;;25.00;99.90;;;;;;6013443;23;20054;-85
2023/07/28 13:24:05;;;;;;;10.57;6.38;;;24.70;99.90;;;;;;6099854;23;20026;-85
2023/07/28 13:26:48;;;;;;;11.45;5.82;;;24.30;99.90;;;;;;6123554;23;20014;-86
2023/07/28 13:29:14;;;;;;;11.40;6.10;;;24.20;99.90;;;;;;6099719;23;20027;-84
2023/07/28 13:31:40;;;;;;;11.95;5.88;;;24.20;99.90;;;;;;6098873;23;20014;-83
2023/07/28 13:34:27;;;;;;;11.30;5.40;;;24.20;99.90;;;;;;6098798;23;20025;-83
2023/07/28 13:36:56;;;;;;;9.43;4.60;;;24.60;99.90;;;;;;6099140;23;20018;-82
2023/07/28 13:39:22;;;;;;;8.18;4.07;;;24.90;99.90;;;;;;6126546;23;20033;-84
2023/07/28 13:41:48;;;;;;;8.32;4.05;;;25.20;99.90;;;;;;6098941;23;20021;-85
2023/07/28 13:44:14;;;;;;;8.07;3.90;;;25.30;99.90;;;;;;6100508;23;20022;-83
2023/07/28 13:46:39;;;;;;;11.73;3.90;;;25.50;99.90;;;;;;6098615;23;20024;-81
2023/07/28 13:49:05;;;;;;;11.27;4.10;;;25.50;99.90;;;;;;6099609;23;20014;-80
2023/07/28 13:51:31;;;;;;;9.48;4.13;;;25.70;99.90;;;;;;6125908;23;20485;-84
2023/07/28 13:53:56;;;;;;;12.48;4.60;;;25.80;99.90;;;;;;6124588;23;20025;-84
2023/07/28 13:56:22;;;;;;;11.23;4.32;;;25.70;99.90;;;;;;6099117;23;20022;-82
2023/07/28 13:58:47;;;;;;;12.52;5.30;;;25.60;99.90;;;;;;6099714;23;20093;-83
2023/07/28 14:01:13;;;;;;;10.65;4.07;;;25.80;99.90;;;;;;6125090;23;20097;-83
2023/07/28 14:03:39;;;;;;;8.43;3.90;;;25.90;99.90;;;;;;6096465;23;20401;-82
2023/07/28 14:06:04;;;;;;;8.25;3.38;;;26.00;99.90;;;;;;6093505;23;20018;-83
2023/07/28 14:08:30;;;;;;;11.32;3.97;;;26.10;99.90;;;;;;6123068;23;20387;-82
2023/07/28 14:10:56;;;;;;;8.38;3.63;;;26.00;99.90;;;;;;6096635;23;20025;-80
2023/07/28 14:13:22;;;;;;;16.95;5.10;;;26.00;99.90;;;;;;6098533;23;20022;-82
2023/07/28 14:15:48;;;;;;;10.27;4.25;;;26.00;99.90;;;;;;6122909;23;20021;-82
2023/07/28 14:18:14;;;;;;;8.30;3.78;;;26.00;99.90;;;;;;6098288;23;20181;-82
2023/07/28 14:20:39;;;;;;;9.32;3.90;;;26.10;99.90;;;;;;6100639;23;20014;-82
2023/07/28 14:23:22;;;;;;;8.23;3.90;;;26.20;99.90;;;;;;6099617;23;20022;-82
2023/07/28 14:25:48;;;;;;;7.80;3.67;;;26.50;99.90;;;;;;6126886;23;20438;-82
2023/07/28 14:28:14;;;;;;;8.00;3.70;;;26.70;99.90;;;;;;6100350;23;20520;-82
2023/07/28 14:30:40;;;;;;;7.90;3.60;;;26.80;99.90;;;;;;6124887;23;20025;-82
2023/07/28 14:33:05;;;;;;;8.10;3.67;;;26.90;99.90;;;;;;6100665;23;20014;-82
2023/07/28 14:35:31;;;;;;;8.10;3.67;;;26.80;99.90;;;;;;6127206;23;20093;-82
2023/07/28 14:37:56;;;;;;;8.90;3.58;;;26.20;99.90;;;;;;6125585;23;20336;-82
2023/07/28 14:40:22;;;;;;;8.10;3.60;;;25.80;99.90;;;;;;6126951;23;20494;-82
2023/07/28 14:42:47;;;;;;;7.50;3.40;;;25.70;99.90;;;;;;6126693;23;20076;-83
2023/07/28 14:45:13;;;;;;;9.85;3.75;;;25.40;99.90;;;;;;6125402;23;20026;-82
2023/07/28 14:47:39;;;;;;;9.10;3.70;;;25.60;99.90;;;;;;6126005;23;20439;-83
2023/07/28 14:50:05;;;;;;;8.48;3.65;;;25.90;99.90;;;;;;6125574;23;20018;-83
2023/07/28 14:52:30;;;;;;;9.00;3.75;;;25.70;99.90;;;;;;6100899;23;20060;-83
2023/07/28 14:54:56;;;;;;;8.40;3.72;;;25.60;99.90;;;;;;6100480;23;20049;-83
2023/07/28 14:57:22;;;;;;;9.50;4.10;;;25.40;99.90;;;;;;6125704;23;20049;-83
2023/07/28 14:59:47;;;;;;;8.80;3.60;;;25.20;99.90;;;;;;6098196;23;20018;-83
2023/07/28 15:02:13;;;;;;;7.95;3.30;;;25.10;99.90;;;;;;6100263;23;20046;-83
2023/07/28 15:04:39;;;;;;;8.20;3.60;;;25.00;99.90;;;;;;6098822;23;20018;-83
2023/07/28 15:07:05;;;;;;;9.77;3.80;;;24.90;99.90;;;;;;6100611;23;20026;-83
2023/07/28 15:09:30;;;;;;;8.13;3.90;;;24.90;99.90;;;;;;6100314;23;20045;-84
2023/07/28 15:11:56;;;;;;;8.75;3.97;;;24.90;99.90;;;;;;6128253;23;20371;-84
2023/07/28 15:14:21;;;;;;;10.38;4.00;;;24.80;99.90;;;;;;6101089;23;20021;-84
2023/07/28 15:16:48;;;;;;;10.50;4.05;;;25.00;99.90;;;;;;6124811;23;20446;-84
2023/07/28 15:19:13;;;;;;;8.02;3.80;;;25.20;99.90;;;;;;6099740;23;20018;-86
2023/07/28 15:21:39;;;;;;;8.38;3.70;;;25.00;99.90;;;;;;6100031;23;20316;-84
2023/07/28 15:24:05;;;;;;;8.00;3.70;;;25.10;99.90;;;;;;6100029;23;20101;-84
2023/07/28 15:26:30;;;;;;;8.63;4.10;;;24.90;99.90;;;;;;6099248;23;20029;-84
2023/07/28 15:28:57;;;;;;;8.88;4.43;;;24.90;99.90;;;;;;6125996;23;20010;-84
2023/07/28 15:31:23;;;;;;;8.80;4.47;;;25.00;99.90;;;;;;6098124;23;20037;-84
2023/07/28 15:33:49;;;;;;;8.18;4.18;;;25.20;99.90;;;;;;6124604;23;20014;-85
2023/07/28 15:36:14;;;;;;;8.88;4.38;;;25.20;99.90;;;;;;6126266;23;20097;-83
2023/07/28 15:38:40;;;;;;;8.40;4.45;;;24.90;99.90;;;;;;6099562;23;20107;-83
2023/07/28 15:41:05;;;;;;;9.15;4.60;;;24.90;99.90;;;;;;6125323;23;20021;-83
2023/07/28 15:43:31;;;;;;;9.60;4.18;;;24.90;99.90;;;;;;6099687;23;20033;-84
2023/07/28 15:45:57;;;;;;;20.35;5.63;;;24.80;99.90;;;;;;6099139;23;20319;-83
2023/07/28 15:48:23;;;;;;;12.65;5.00;;;24.60;99.90;;;;;;6098615;23;20104;-83
2023/07/28 15:50:48;;;;;;;9.55;4.95;;;24.60;99.90;;;;;;6098432;23;20041;-85
2023/07/28 15:53:14;;;;;;;9.88;4.82;;;24.50;99.90;;;;;;6099308;23;20383;-83
2023/07/28 15:55:40;;;;;;;9.30;4.50;;;24.60;99.90;;;;;;6099132;23;20133;-84
2023/07/28 15:58:05;;;;;;;9.32;4.97;;;24.30;99.90;;;;;;6126131;23;20022;-83
2023/07/28 16:00:31;;;;;;;8.65;4.80;;;24.40;99.90;;;;;;6099906;23;20356;-83
2023/07/28 16:02:57;;;;;;;10.52;5.20;;;24.60;99.90;;;;;;6099758;23;20026;-83
2023/07/28 16:05:22;;;;;;;10.10;5.25;;;24.60;99.90;;;;;;6099903;23;20025;-83
2023/07/28 16:07:48;;;;;;;9.73;4.88;;;24.70;99.90;;;;;;6099040;23;20026;-84
2023/07/28 16:10:13;;;;;;;9.13;4.68;;;24.70;99.90;;;;;;6100793;23;20025;-82
2023/07/28 16:12:39;;;;;;;9.88;4.88;;;24.70;99.90;;;;;;6099335;23;20027;-81
2023/07/28 16:15:05;;;;;;;9.07;4.32;;;24.70;99.90;;;;;;6099220;23;20017;-82
2023/07/28 16:17:31;;;;;;;8.43;4.28;;;24.80;99.90;;;;;;6099885;23;20065;-82
2023/07/28 16:19:57;;;;;;;8.30;4.28;;;24.80;99.90;;;;;;6126044;23;20014;-82
2023/07/28 16:22:23;;;;;;;9.52;4.22;;;24.80;99.90;;;;;;6099493;23;20093;-82
2023/07/28 16:24:49;;;;;;;8.95;4.18;;;24.80;99.90;;;;;;6099700;23;20093;-81
2023/07/28 16:27:15;;;;;;;8.43;3.83;;;24.70;99.90;;;;;;6099953;23;20454;-81
2023/07/28 16:29:41;;;;;;;8.20;3.90;;;24.70;99.90;;;;;;6098885;23;20152;-85
2023/07/28 16:32:08;;;;;;;9.05;4.03;;;24.90;99.90;;;;;;6100176;23;20447;-83
2023/07/28 16:34:33;;;;;;;7.82;3.53;;;24.90;99.90;;;;;;6125319;23;20049;-83
2023/07/28 16:36:59;;;;;;;7.88;3.65;;;24.90;99.90;;;;;;6124642;23;20018;-83
2023/07/28 16:39:25;;;;;;;10.25;4.40;;;25.00;99.90;;;;;;6099920;23;20029;-84
2023/07/28 16:41:50;;;;;;;8.70;4.13;;;25.10;99.90;;;;;;6125525;23;20017;-83
2023/07/28 16:44:16;;;;;;;9.82;4.18;;;25.30;99.90;;;;;;6125405;23;20025;-83
2023/07/28 16:46:42;;;;;;;8.18;3.72;;;25.80;99.90;;;;;;6099875;23;20021;-84
2023/07/28 16:49:07;;;;;;;8.20;3.50;;;26.00;99.90;;;;;;6126283;23;20018;-83
2023/07/28 16:51:33;;;;;;;9.82;3.58;;;26.30;99.90;;;;;;6099151;23;20497;-83
2023/07/28 16:53:59;;;;;;;9.63;3.63;;;26.20;99.90;;;;;;6125839;23;20013;-83
2023/07/28 16:56:25;;;;;;;8.23;3.70;;;26.00;99.90;;;;;;6099435;23;20431;-82